• Join FlightAware (Why Join?)
  • Login
  • US Flag 
04:26PM EDT


 

Airport Tracker/Info


-or-


 

Live Flight TrackerFlight Track Log ✈ JZA7927 ✈ 25-May-2013 ✈ KBWI - CYYZ

Flight Track Log - Related Links

Times and Time Zones

All times are in EDT time to prevent confusion due to time zone crossing. See the JZA7927 flight status page for this flight to view local times or setup timezone preferences in your user account.

Time Position Orientation Groundspeed Altitude Reporting Facility
EDT Latitude Longitude Course Direction KTS MPH feet Rate Location/Type
06:15AM 39.2000 -76.6667 North 106 122 1,300  Level Potomac TRACON
06:16AM 39.2167 -76.6833 322° Northwest 97 112 2,900 1,320 Climbing Potomac TRACON
06:17AM 39.2500 -76.7167 322° Northwest 115 132 3,900 1,080 Climbing Potomac TRACON
06:17AM 39.2667 -76.7167 360° North 116 133 4,900 1,080 Climbing Potomac TRACON
06:18AM 39.3863 -76.6667 North  Level FlightAware Approximate
06:18AM 39.3000 -76.7000 21° North 128 147 5,900  Level Potomac TRACON
06:19AM 39.4401 -76.6455 27° Northeast  Level FlightAware Approximate
06:19AM 39.3333 -76.7000 360° North 113 130 7,200  Level Potomac TRACON
06:20AM 39.4918 -76.6167 North  Level FlightAware Approximate
06:20AM 39.3667 -76.6833 21° North 112 129 8,500  Level Potomac TRACON
06:21AM 39.3833 -76.6833 360° North 114 131 9,500 840 Climbing Potomac TRACON
06:23AM 39.4531 -76.6703 North 130 150 11,000 480 Climbing New York Center
06:24AM 39.5058 -76.6586 10° North 151 174 11,000  Level New York Center
06:25AM 39.5542 -76.6492 North 180 207 11,000 300 Level New York Center
06:26AM 39.6108 -76.6403 North 186 214 11,700 540 Climbing New York Center
06:27AM 39.6553 -76.6306 10° North 181 208 12,200 540 Climbing New York Center
06:28AM 39.7100 -76.6189 North 181 208 12,800 360 Climbing New York Center
06:29AM 39.7542 -76.6092 10° North 181 208 13,000 60 Climbing New York Center
06:30AM 39.8153 -76.5981 North 189 217 13,000 120 Level New York Center
06:31AM 39.8611 -76.5992 359° North 189 217 13,300 540 Climbing New York Center
06:32AM 39.9114 -76.6331 333° Northwest 183 211 14,100 720 Climbing New York Center
06:33AM 39.9478 -76.6578 332° Northwest 173 199 14,800 600 Climbing New York Center
06:34AM 39.9944 -76.6861 335° Northwest 167 192 15,400 540 Climbing New York Center
06:35AM 40.0306 -76.7108 332° Northwest 167 192 15,900 300 Climbing New York Center
06:36AM 40.0792 -76.7422 334° Northwest 167 192 16,000  Climbing New York Center
06:37AM 40.1236 -76.7703 334° Northwest 179 206 16,000  Level New York Center
06:38AM 40.1742 -76.8019 334° Northwest 188 216 16,000  Level New York Center
06:39AM 40.2247 -76.8308 336° Northwest 188 216 16,000  Level New York Center
06:40AM 40.2731 -76.8650 332° Northwest 188 216 16,000  Level New York Center
06:41AM 40.3233 -76.8992 333° Northwest 188 216 16,000  Level New York Center
06:42AM 40.3719 -76.9256 338° Northwest 193 222 16,000  Level New York Center
06:43AM 40.4242 -76.9628 332° Northwest 193 222 16,000  Level New York Center
06:44AM 40.4664 -76.9911 333° Northwest 193 222 16,000  Level New York Center
06:45AM 40.5111 -77.0169 336° Northwest 193 222 16,000  Level New York Center
06:46AM 40.5653 -77.0547 332° Northwest 193 222 16,000  Level New York Center
06:47AM 40.6197 -77.0897 334° Northwest 193 222 16,000  Level New York Center
06:48AM 40.6681 -77.1217 333° Northwest 193 222 16,000  Level New York Center
06:49AM 40.7164 -77.1536 333° Northwest 198 228 16,000  Level New York Center
06:50AM 40.7647 -77.1853 334° Northwest 193 222 16,000  Level New York Center
06:51AM 40.8128 -77.2175 333° Northwest 193 222 16,000  Level New York Center
06:52AM 40.8653 -77.2497 335° Northwest 193 222 16,000  Level New York Center
06:53AM 40.9156 -77.2847 332° Northwest 193 222 16,000  Level New York Center
06:54AM 40.9681 -77.3172 335° Northwest 193 222 16,000  Level New York Center
06:55AM 41.0203 -77.3497 335° Northwest 199 229 16,000  Level New York Center
06:56AM 41.0644 -77.3817 331° Northwest 199 229 16,000  Level New York Center
06:57AM 41.1167 -77.4142 335° Northwest 199 229 16,000  Level New York Center
06:58AM 41.1669 -77.4467 334° Northwest 199 229 16,000  Level New York Center
07:00AM 41.2686 -77.5164 333° Northwest 199 229 16,100  Climbing Cleveland Center
07:01AM 41.3194 -77.5500 334° Northwest 204 235 16,100  Level Cleveland Center
07:02AM 41.3703 -77.5808 336° Northwest 204 235 16,100  Level Cleveland Center
07:03AM 41.4233 -77.6172 333° Northwest 204 235 16,100  Level Cleveland Center
07:04AM 41.4722 -77.6511 333° Northwest 204 235 16,100  Level Cleveland Center
07:05AM 41.5231 -77.6847 334° Northwest 204 235 16,100  Level Cleveland Center
07:06AM 41.5742 -77.7214 332° Northwest 204 235 16,100  Level Cleveland Center
07:07AM 41.6269 -77.7550 335° Northwest 204 235 16,100  Level Cleveland Center
07:08AM 41.6781 -77.7889 334° Northwest 204 235 16,100  Level Cleveland Center
07:09AM 41.7244 -77.8203 333° Northwest 204 235 16,100  Level Cleveland Center
07:10AM 41.7775 -77.8572 333° Northwest 204 235 16,100  Level Cleveland Center
07:11AM 41.8283 -77.8883 335° Northwest 204 235 16,100  Level Cleveland Center
07:12AM 41.8814 -77.9253 333° Northwest 204 235 16,100  Level Cleveland Center
07:13AM 41.9342 -77.9622 332° Northwest 204 235 16,100  Level Cleveland Center
07:14AM 41.9872 -77.9964 334° Northwest 209 241 16,100  Level Cleveland Center
07:15AM 42.0400 -78.0333 333° Northwest 204 235 16,100  Level Cleveland Center
07:16AM 42.0911 -78.0706 332° Northwest 204 235 16,100  Level Cleveland Center
07:17AM 42.1458 -78.1047 335° Northwest 204 235 16,100  Level Cleveland Center
07:18AM 42.1989 -78.1419 333° Northwest 204 235 16,100  Level Cleveland Center
07:19AM 42.2539 -78.1761 335° Northwest 204 235 16,100  Level Cleveland Center
07:20AM 42.3067 -78.2136 332° Northwest 204 235 16,100 -60 Level Cleveland Center
07:21AM 42.3594 -78.2508 332° Northwest 204 235 16,000 -60 Descending Cleveland Center
07:22AM 42.4144 -78.2883 333° Northwest 204 235 16,000  Level Cleveland Center
07:23AM 42.4694 -78.3256 333° Northwest 204 235 16,000  Level Cleveland Center
07:24AM 42.5222 -78.3603 334° Northwest 204 235 16,000 -120 Level Cleveland Center
07:25AM 42.5772 -78.3981 333° Northwest 204 235 15,800 -600 Descending Cleveland Center
07:26AM 42.6364 -78.4411 332° Northwest 216 249 14,800 -900 Descending Cleveland Center
07:27AM 42.6875 -78.5072 316° Northwest 240 276 14,000 -660 Descending Cleveland Center
07:28AM 42.7367 -78.5733 315° West 245 282 13,500 -840 Descending Cleveland Center
07:29AM 42.7836 -78.6425 313° West 245 282 12,400 -1,140 Descending Cleveland Center
07:30AM 42.8347 -78.7089 316° Northwest 250 288 11,300 -720 Descending Cleveland Center
07:31AM 42.8817 -78.7728 315° West 250 288 11,000 -180 Descending Cleveland Center
07:32AM 42.9242 -78.8311 315° West 232 267 11,000  Level Cleveland Center
07:33AM 42.9833 -78.9000 320° Northwest 220 253 11,000  Level Toronto Center